Marco Island, Florida
Current Conditions -  °F | °C
As of 10:53 PM on Wednesday 22 Oct 2014 (Local Time) from KAPF Reporting Station
Clear Clear  
Wind Chill: 77°   Ceiling: Unl
Heat Index: 78°   Visibility: 10mi
Dew Point: 72°   Wind: 3mph
Humidity: 84%   Direction: 80°E
Pressure: 29.93"   Gusts: NA
Location:  25.97°N, 81.73°W
Report Text: KAPF 230253Z AUTO 08003KT 10SM CLR 25/22 A2993 RMK AO2 SLP134 T02500222 50002
Loading
Personal Weather Stations






























Interactive Weather Map
Tropical Storm Tracking
New forecast layout! Learn more

10-Day Weather Forecast

Advertisements
Track Severe Weather on mobile